createdAt,value
2018-09-03T00:00:39.551Z,18.00
2018-09-03T00:03:06.705Z,17.87
2018-09-03T00:05:33.913Z,18.10
2018-09-03T00:08:01.078Z,18.10
2018-09-03T00:10:28.223Z,18.11
2018-09-03T00:12:55.347Z,18.13
2018-09-03T00:15:22.481Z,18.20
2018-09-03T00:17:49.602Z,18.18
2018-09-03T00:20:16.730Z,18.18
2018-09-03T00:22:43.861Z,18.20
2018-09-03T00:25:11.145Z,18.18
2018-09-03T00:27:38.542Z,18.18
2018-09-03T00:30:06.041Z,18.18
2018-09-03T00:32:39.145Z,18.20
2018-09-03T00:35:11.819Z,18.16
2018-09-03T00:37:44.936Z,18.19
2018-09-03T00:40:17.573Z,18.16
2018-09-03T00:42:50.447Z,18.17
2018-09-03T00:45:23.299Z,18.16
2018-09-03T00:47:50.414Z,18.20
2018-09-03T00:50:17.530Z,18.28
2018-09-03T00:52:44.677Z,18.19
2018-09-03T00:55:11.779Z,18.08
2018-09-03T00:57:38.893Z,18.07
2018-09-03T01:00:06.488Z,18.08
2018-09-03T01:02:33.630Z,18.03
2018-09-03T01:05:00.753Z,17.99
2018-09-03T01:07:27.830Z,17.98
2018-09-03T01:09:54.946Z,18.05
2018-09-03T01:12:22.037Z,18.06
2018-09-03T01:14:49.239Z,18.05
2018-09-03T01:17:16.328Z,17.99
2018-09-03T01:19:43.442Z,18.01
2018-09-03T01:22:10.552Z,17.95
2018-09-03T01:24:37.682Z,17.97
2018-09-03T01:27:05.006Z,17.98
2018-09-03T01:29:32.168Z,18.03
2018-09-03T01:31:59.198Z,18.02
2018-09-03T01:34:26.690Z,18.00
2018-09-03T01:36:53.834Z,17.95
2018-09-03T01:39:20.942Z,17.92
2018-09-03T01:41:48.063Z,17.89
2018-09-03T01:44:15.179Z,17.92
2018-09-03T01:46:42.317Z,17.97
2018-09-03T01:49:09.413Z,17.99
2018-09-03T01:51:36.528Z,17.98
2018-09-03T01:54:03.626Z,18.03
2018-09-03T01:56:30.750Z,18.07
2018-09-03T01:58:57.840Z,18.10
2018-09-03T02:01:25.049Z,18.09
2018-09-03T02:03:52.182Z,18.15
2018-09-03T02:06:19.651Z,18.14
2018-09-03T02:08:46.740Z,18.09
2018-09-03T02:11:13.967Z,18.05
2018-09-03T02:13:41.128Z,18.02
2018-09-03T02:16:08.228Z,17.99
2018-09-03T02:18:35.362Z,17.98
2018-09-03T02:21:02.495Z,18.02
2018-09-03T02:23:29.598Z,17.99
2018-09-03T02:25:56.718Z,17.98
2018-09-03T02:28:23.843Z,18.01
2018-09-03T02:30:50.967Z,18.00
2018-09-03T02:33:22.090Z,17.98
2018-09-03T02:35:49.219Z,17.90
2018-09-03T02:38:16.335Z,17.88
2018-09-03T02:40:43.431Z,17.91
2018-09-03T02:43:10.593Z,17.92
2018-09-03T02:45:37.701Z,17.94
2018-09-03T02:48:04.898Z,17.92
2018-09-03T02:50:32.020Z,17.95
2018-09-03T02:52:59.120Z,17.92
2018-09-03T02:55:26.265Z,17.95
2018-09-03T02:57:53.370Z,17.94
2018-09-03T03:00:24.681Z,17.94
2018-09-03T03:02:52.071Z,17.98
2018-09-03T03:05:19.192Z,17.94
2018-09-03T03:07:46.323Z,17.93
2018-09-03T03:10:13.462Z,17.94
2018-09-03T03:12:40.558Z,17.91
2018-09-03T03:15:07.726Z,17.92
2018-09-03T03:17:34.806Z,17.90
2018-09-03T03:20:01.914Z,17.89
2018-09-03T03:22:28.998Z,17.89
2018-09-03T03:24:56.168Z,17.99
2018-09-03T03:27:23.259Z,17.98
2018-09-03T03:29:50.363Z,17.93
2018-09-03T03:32:17.486Z,17.97
2018-09-03T03:34:44.577Z,17.98
2018-09-03T03:37:11.690Z,17.98
2018-09-03T03:39:38.785Z,17.97
2018-09-03T03:42:05.938Z,18.03
2018-09-03T03:44:33.040Z,18.02
2018-09-03T03:47:00.146Z,17.96
2018-09-03T03:49:27.222Z,17.96
2018-09-03T03:51:54.406Z,17.90
2018-09-03T03:54:21.505Z,17.83
2018-09-03T03:56:48.604Z,17.80
2018-09-03T03:59:15.685Z,17.78
2018-09-03T04:01:42.823Z,17.81
2018-09-03T04:04:09.997Z,17.81
2018-09-03T04:06:37.144Z,17.84
2018-09-03T04:09:06.598Z,17.87
2018-09-03T04:11:33.691Z,17.85
2018-09-03T04:14:00.789Z,17.85
2018-09-03T04:16:27.960Z,17.85
2018-09-03T04:18:55.107Z,17.85
2018-09-03T04:21:22.221Z,17.85
2018-09-03T04:23:49.365Z,17.85
2018-09-03T04:26:16.470Z,17.87
2018-09-03T04:28:43.612Z,17.90
2018-09-03T04:31:10.666Z,17.95
2018-09-03T04:33:37.837Z,17.91
2018-09-03T04:36:05.071Z,17.89
2018-09-03T04:38:32.248Z,17.90
2018-09-03T04:40:59.323Z,17.86
2018-09-03T04:43:26.473Z,17.85
2018-09-03T04:45:53.586Z,17.82
2018-09-03T04:48:20.744Z,17.82
2018-09-03T04:50:47.821Z,17.87
2018-09-03T04:53:14.926Z,17.88
2018-09-03T04:55:42.056Z,17.65
2018-09-03T04:58:09.217Z,17.83
2018-09-03T05:00:36.317Z,17.80
2018-09-03T05:03:03.417Z,17.80
2018-09-03T05:05:30.683Z,17.81
2018-09-03T05:07:57.798Z,17.87
2018-09-03T05:10:25.000Z,17.84
2018-09-03T05:12:52.137Z,17.78
2018-09-03T05:15:19.262Z,17.71
2018-09-03T05:17:46.432Z,17.70
2018-09-03T05:20:14.073Z,17.76
2018-09-03T05:22:41.221Z,17.76
2018-09-03T05:25:08.322Z,17.79
2018-09-03T05:27:35.448Z,17.90
2018-09-03T05:30:02.617Z,17.91
2018-09-03T05:32:29.712Z,17.86
2018-09-03T05:34:56.878Z,17.84
2018-09-03T05:37:24.106Z,17.84
2018-09-03T05:39:51.258Z,17.89
2018-09-03T05:42:18.406Z,17.94
2018-09-03T05:44:45.601Z,17.95
2018-09-03T05:47:12.977Z,17.94
2018-09-03T05:49:40.106Z,17.97
2018-09-03T05:52:07.193Z,17.97
2018-09-03T05:54:34.318Z,18.02
2018-09-03T05:57:01.405Z,18.06
2018-09-03T05:59:28.573Z,18.09
2018-09-03T06:01:56.220Z,18.09
2018-09-03T06:04:23.361Z,18.18
2018-09-03T06:06:50.578Z,18.17
2018-09-03T06:09:17.652Z,18.23
2018-09-03T06:11:44.796Z,18.28
2018-09-03T06:14:12.160Z,18.27
2018-09-03T06:16:39.340Z,18.27
2018-09-03T06:19:06.414Z,18.30
2018-09-03T06:21:33.559Z,18.25
2018-09-03T06:24:00.889Z,18.24
2018-09-03T06:26:28.077Z,18.19
2018-09-03T06:28:55.221Z,18.20
2018-09-03T06:31:22.321Z,18.24
2018-09-03T06:33:49.441Z,18.30
2018-09-03T06:36:16.838Z,18.33
2018-09-03T06:38:43.994Z,18.39
2018-09-03T06:41:11.404Z,18.47
2018-09-03T06:43:38.915Z,18.53
2018-09-03T06:46:06.074Z,18.57
2018-09-03T06:48:33.589Z,18.61
2018-09-03T06:51:00.808Z,18.42
2018-09-03T06:53:28.006Z,18.64
2018-09-03T06:55:55.212Z,18.65
2018-09-03T06:58:22.355Z,18.64
2018-09-03T07:00:49.582Z,18.65
2018-09-03T07:03:16.830Z,18.68
2018-09-03T07:05:43.973Z,18.72
2018-09-03T07:08:11.218Z,18.75
2018-09-03T07:10:38.402Z,18.66
2018-09-03T07:13:06.632Z,18.73
2018-09-03T07:15:34.353Z,18.76
2018-09-03T07:18:01.718Z,18.79
2018-09-03T07:20:28.838Z,18.82
2018-09-03T07:22:56.018Z,18.86
2018-09-03T07:25:23.098Z,18.89
2018-09-03T07:27:50.307Z,18.93
2018-09-03T07:30:17.446Z,18.88
2018-09-03T07:32:44.964Z,18.72
2018-09-03T07:35:12.338Z,18.73
2018-09-03T07:37:39.454Z,18.68
2018-09-03T07:40:06.977Z,18.71
2018-09-03T07:42:34.094Z,18.82
2018-09-03T07:45:01.234Z,18.83
2018-09-03T07:47:28.404Z,18.91
2018-09-03T07:49:55.571Z,18.98
2018-09-03T07:52:22.754Z,18.93
2018-09-03T07:54:49.874Z,18.93
2018-09-03T07:57:16.998Z,18.91
2018-09-03T07:59:44.131Z,18.81
2018-09-03T08:02:11.282Z,18.83
2018-09-03T08:04:38.435Z,18.68
2018-09-03T08:07:05.760Z,18.74
2018-09-03T08:09:33.153Z,18.89
2018-09-03T08:12:00.366Z,19.05
2018-09-03T08:14:27.493Z,19.00
2018-09-03T08:16:54.696Z,19.10
2018-09-03T08:19:21.906Z,19.18
2018-09-03T08:21:49.141Z,19.13
2018-09-03T08:24:16.263Z,19.24
2018-09-03T08:26:43.673Z,19.22
2018-09-03T08:29:10.825Z,19.22
2018-09-03T08:31:37.996Z,19.23
2018-09-03T08:34:05.131Z,19.26
2018-09-03T08:36:32.274Z,19.31
2018-09-03T08:38:59.432Z,19.38
2018-09-03T08:41:26.595Z,19.50
2018-09-03T08:43:53.825Z,19.52
2018-09-03T08:46:20.973Z,19.44
2018-09-03T08:48:48.080Z,19.41
2018-09-03T08:51:15.266Z,19.47
2018-09-03T08:53:42.528Z,19.44
2018-09-03T08:56:09.749Z,19.35
2018-09-03T08:58:36.966Z,19.31
2018-09-03T09:01:04.078Z,19.38
2018-09-03T09:03:36.825Z,19.35
2018-09-03T09:06:03.960Z,19.42
2018-09-03T09:08:31.111Z,19.45
2018-09-03T09:10:58.335Z,19.50
2018-09-03T09:13:25.517Z,19.45
2018-09-03T09:15:52.631Z,19.56
2018-09-03T09:18:19.797Z,19.77
2018-09-03T09:20:46.906Z,19.89
2018-09-03T09:23:14.558Z,19.75
2018-09-03T09:25:41.678Z,19.89
2018-09-03T09:28:14.910Z,20.14
2018-09-03T09:30:42.030Z,20.16
2018-09-03T09:33:09.894Z,20.19
2018-09-03T09:35:37.435Z,20.22
2018-09-03T09:38:04.638Z,20.28
2018-09-03T09:40:31.869Z,20.31
2018-09-03T09:42:59.216Z,20.20
2018-09-03T09:45:26.658Z,19.99
2018-09-03T09:47:53.890Z,20.13
2018-09-03T09:50:21.278Z,20.15
2018-09-03T09:52:48.457Z,20.08
2018-09-03T09:55:15.713Z,19.97
2018-09-03T09:57:42.989Z,20.07
2018-09-03T10:00:10.896Z,20.12
2018-09-03T10:02:38.871Z,20.30
2018-09-03T10:05:06.531Z,20.31
2018-09-03T10:07:33.665Z,20.40
2018-09-03T10:10:01.127Z,20.55
2018-09-03T10:12:32.363Z,20.57
2018-09-03T10:15:00.645Z,20.52
2018-09-03T10:17:28.797Z,20.47
2018-09-03T10:19:56.207Z,20.41
2018-09-03T10:22:23.353Z,20.46
2018-09-03T10:24:50.718Z,20.44
2018-09-03T10:27:17.866Z,20.49
2018-09-03T10:29:45.095Z,20.65
2018-09-03T10:32:12.292Z,20.59
2018-09-03T10:34:39.438Z,20.75
2018-09-03T10:37:07.344Z,20.93
2018-09-03T10:39:34.454Z,21.07
2018-09-03T10:42:01.650Z,21.32
2018-09-03T10:44:28.905Z,21.51
2018-09-03T10:46:56.055Z,21.53
2018-09-03T10:49:23.180Z,21.77
2018-09-03T10:51:50.502Z,21.98
2018-09-03T10:54:17.764Z,22.08
2018-09-03T10:56:45.113Z,22.16
2018-09-03T10:59:12.239Z,22.29
2018-09-03T11:01:39.397Z,22.28
2018-09-03T11:04:07.305Z,22.39
2018-09-03T11:06:34.485Z,22.39
2018-09-03T11:09:01.690Z,22.52
2018-09-03T11:11:29.491Z,22.61
2018-09-03T11:13:56.829Z,22.42
2018-09-03T11:16:24.583Z,22.15
2018-09-03T11:18:51.748Z,21.73
2018-09-03T11:21:19.338Z,21.64
2018-09-03T11:23:46.399Z,21.58
2018-09-03T11:26:13.570Z,21.67
2018-09-03T11:28:40.738Z,21.79
2018-09-03T11:31:07.896Z,21.92
2018-09-03T11:33:35.075Z,22.05
2018-09-03T11:36:02.197Z,22.17
2018-09-03T11:38:29.348Z,22.34
2018-09-03T11:40:56.551Z,21.75
2018-09-03T11:43:23.650Z,22.48
2018-09-03T11:45:50.793Z,22.63
2018-09-03T11:48:17.998Z,22.73
2018-09-03T11:50:45.178Z,22.87
2018-09-03T11:53:12.369Z,23.29
2018-09-03T11:55:39.471Z,23.46
2018-09-03T11:58:06.662Z,23.55
2018-09-03T12:00:33.943Z,23.54
2018-09-03T12:03:01.060Z,23.46
2018-09-03T12:05:28.666Z,23.59
2018-09-03T12:07:55.837Z,23.49
2018-09-03T12:10:23.017Z,23.29
2018-09-03T12:12:50.145Z,23.42
2018-09-03T12:15:22.512Z,23.90
2018-09-03T12:17:49.627Z,24.28
2018-09-03T12:20:16.854Z,24.33
2018-09-03T12:22:44.001Z,24.25
2018-09-03T12:25:11.151Z,24.18
2018-09-03T12:27:38.305Z,23.98
2018-09-03T12:30:06.102Z,24.01
2018-09-03T12:32:33.178Z,24.04
2018-09-03T12:35:00.634Z,23.96
2018-09-03T12:37:27.765Z,23.57
2018-09-03T12:39:54.951Z,23.51
2018-09-03T12:42:22.099Z,23.77
2018-09-03T12:44:49.710Z,23.74
2018-09-03T12:47:16.862Z,23.63
2018-09-03T12:49:44.270Z,23.48
2018-09-03T12:52:11.416Z,23.33
2018-09-03T12:54:38.613Z,23.35
2018-09-03T12:57:05.784Z,23.26
2018-09-03T12:59:32.930Z,23.46
2018-09-03T13:02:00.093Z,23.92
2018-09-03T13:04:27.254Z,23.99
2018-09-03T13:06:54.467Z,24.14
2018-09-03T13:09:21.594Z,24.26
2018-09-03T13:11:48.746Z,24.25
2018-09-03T13:14:15.890Z,24.13
2018-09-03T13:16:43.135Z,24.25
2018-09-03T13:19:10.292Z,24.37
2018-09-03T13:21:37.714Z,24.48
2018-09-03T13:24:04.854Z,24.56
2018-09-03T13:26:32.422Z,24.40
2018-09-03T13:28:59.699Z,24.20
2018-09-03T13:31:26.986Z,24.39
2018-09-03T13:33:54.401Z,24.61
2018-09-03T13:36:21.559Z,24.76
2018-09-03T13:38:48.801Z,24.54
2018-09-03T13:41:16.020Z,24.78
2018-09-03T13:43:43.215Z,24.73
2018-09-03T13:46:10.440Z,24.72
2018-09-03T13:48:37.662Z,24.46
2018-09-03T13:51:05.040Z,24.25
2018-09-03T13:53:32.447Z,24.10
2018-09-03T13:55:59.607Z,24.04
2018-09-03T13:58:26.742Z,23.93
2018-09-03T14:00:53.970Z,23.97
2018-09-03T14:03:21.254Z,23.67
2018-09-03T14:05:48.793Z,23.66
2018-09-03T14:08:16.026Z,23.61
2018-09-03T14:10:43.151Z,23.52
2018-09-03T14:13:10.403Z,23.43
2018-09-03T14:15:37.574Z,23.40
2018-09-03T14:18:05.195Z,23.46
2018-09-03T14:20:32.654Z,23.50
2018-09-03T14:22:59.790Z,23.61
2018-09-03T14:25:27.037Z,23.61
2018-09-03T14:27:54.210Z,23.60
2018-09-03T14:30:21.360Z,23.49
2018-09-03T14:32:48.525Z,23.54
2018-09-03T14:35:15.758Z,23.51
2018-09-03T14:37:42.949Z,23.64
2018-09-03T14:40:10.133Z,23.72
2018-09-03T14:42:37.422Z,23.79
2018-09-03T14:45:04.905Z,23.79
2018-09-03T14:47:32.111Z,23.70
2018-09-03T14:49:59.698Z,23.50
2018-09-03T14:52:27.000Z,23.45
2018-09-03T14:54:54.203Z,23.45
2018-09-03T14:57:21.346Z,23.50
2018-09-03T14:59:48.639Z,23.79
2018-09-03T15:02:15.786Z,24.22
2018-09-03T15:04:49.719Z,24.70
2018-09-03T15:07:16.874Z,24.72
2018-09-03T15:09:44.112Z,24.72
2018-09-03T15:12:11.288Z,24.68
2018-09-03T15:14:38.464Z,24.54
2018-09-03T15:17:05.618Z,24.56
2018-09-03T15:19:32.897Z,24.32
2018-09-03T15:22:00.098Z,24.29
2018-09-03T15:24:27.227Z,24.18
2018-09-03T15:26:54.410Z,24.23
2018-09-03T15:29:21.552Z,24.16
2018-09-03T15:31:48.726Z,24.29
2018-09-03T15:34:15.826Z,24.36
2018-09-03T15:36:43.191Z,24.40
2018-09-03T15:39:11.487Z,24.45
2018-09-03T15:41:38.774Z,24.54
2018-09-03T15:44:06.213Z,24.53
2018-09-03T15:46:33.579Z,24.49
2018-09-03T15:49:00.759Z,24.40
2018-09-03T15:51:27.855Z,24.33
2018-09-03T15:53:55.121Z,24.22
2018-09-03T15:56:22.246Z,24.14
2018-09-03T15:58:49.394Z,23.98
2018-09-03T16:01:16.511Z,23.89
2018-09-03T16:03:43.629Z,23.94
2018-09-03T16:06:10.758Z,23.81
2018-09-03T16:08:37.910Z,23.66
2018-09-03T16:11:05.091Z,23.75
2018-09-03T16:13:32.234Z,23.77
2018-09-03T16:15:59.345Z,23.97
2018-09-03T16:18:27.614Z,23.96
2018-09-03T16:20:54.924Z,23.93
2018-09-03T16:23:22.058Z,23.91
2018-09-03T16:25:49.199Z,23.90
2018-09-03T16:28:16.342Z,23.94
2018-09-03T16:30:43.432Z,23.98
2018-09-03T16:33:11.221Z,23.93
2018-09-03T16:35:38.365Z,23.98
2018-09-03T16:38:05.604Z,24.00
2018-09-03T16:40:32.748Z,24.01
2018-09-03T16:42:59.934Z,23.99
2018-09-03T16:45:27.105Z,23.98
2018-09-03T16:47:54.234Z,23.90
2018-09-03T16:50:21.417Z,23.95
2018-09-03T16:52:48.626Z,24.01
2018-09-03T16:55:15.788Z,24.06
2018-09-03T16:57:42.894Z,24.08
2018-09-03T17:00:10.034Z,24.05
2018-09-03T17:02:37.190Z,23.91
2018-09-03T17:05:04.337Z,23.87
2018-09-03T17:07:31.745Z,23.87
2018-09-03T17:09:58.957Z,23.81
2018-09-03T17:12:33.092Z,23.72
2018-09-03T17:15:00.322Z,23.58
2018-09-03T17:17:27.489Z,23.49
2018-09-03T17:19:54.962Z,23.39
2018-09-03T17:22:22.255Z,23.29
2018-09-03T17:24:49.439Z,23.27
2018-09-03T17:27:16.649Z,23.25
2018-09-03T17:29:43.852Z,23.25
2018-09-03T17:32:11.307Z,23.19
2018-09-03T17:34:38.449Z,23.13
2018-09-03T17:37:05.590Z,23.03
2018-09-03T17:39:32.750Z,23.08
2018-09-03T17:41:59.882Z,23.08
2018-09-03T17:44:27.062Z,22.82
2018-09-03T17:46:54.280Z,22.70
2018-09-03T17:49:21.439Z,22.65
2018-09-03T17:51:48.617Z,22.60
2018-09-03T17:54:15.810Z,22.53
2018-09-03T17:56:43.022Z,22.40
2018-09-03T17:59:10.181Z,22.28
2018-09-03T18:01:37.357Z,22.20
2018-09-03T18:04:04.630Z,22.16
2018-09-03T18:06:31.880Z,22.14
2018-09-03T18:08:59.046Z,22.12
2018-09-03T18:11:27.286Z,22.13
2018-09-03T18:13:54.579Z,22.09
2018-09-03T18:16:21.732Z,21.95
2018-09-03T18:18:49.940Z,21.81
2018-09-03T18:21:17.111Z,21.81
2018-09-03T18:23:44.328Z,21.63
2018-09-03T18:26:11.556Z,21.56
2018-09-03T18:28:39.380Z,21.59
2018-09-03T18:31:06.640Z,21.69
2018-09-03T18:33:33.986Z,21.71
2018-09-03T18:36:01.188Z,21.67
2018-09-03T18:38:28.413Z,21.66
2018-09-03T18:40:55.570Z,21.59
2018-09-03T18:43:22.791Z,21.57
2018-09-03T18:45:50.810Z,21.55
2018-09-03T18:48:18.017Z,21.54
2018-09-03T18:50:46.410Z,21.51
2018-09-03T18:53:13.588Z,21.23
2018-09-03T18:55:40.740Z,21.42
2018-09-03T18:58:07.932Z,21.40
2018-09-03T19:00:35.065Z,21.33
2018-09-03T19:03:02.232Z,21.31
2018-09-03T19:05:29.930Z,21.38
2018-09-03T19:07:57.171Z,21.36
2018-09-03T19:10:24.420Z,21.32
2018-09-03T19:12:51.588Z,21.30
2018-09-03T19:15:18.761Z,21.24
2018-09-03T19:17:46.026Z,21.21
2018-09-03T19:20:14.794Z,21.21
2018-09-03T19:22:41.979Z,21.18
2018-09-03T19:25:09.514Z,21.12
2018-09-03T19:27:36.818Z,21.01
2018-09-03T19:30:04.222Z,20.97
2018-09-03T19:32:31.476Z,20.92
2018-09-03T19:35:01.795Z,20.91
2018-09-03T19:37:28.941Z,21.02
2018-09-03T19:39:56.140Z,20.99
2018-09-03T19:42:24.172Z,20.96
2018-09-03T19:44:51.748Z,20.85
2018-09-03T19:47:18.946Z,20.75
2018-09-03T19:49:46.124Z,20.67
2018-09-03T19:52:16.851Z,20.69
2018-09-03T19:54:44.164Z,20.69
2018-09-03T19:57:11.390Z,20.65
2018-09-03T19:59:38.634Z,20.63
2018-09-03T20:02:06.142Z,20.63
2018-09-03T20:04:33.795Z,20.57
2018-09-03T20:07:01.019Z,20.48
2018-09-03T20:09:28.161Z,20.52
2018-09-03T20:11:55.395Z,20.49
2018-09-03T20:14:22.837Z,20.43
2018-09-03T20:16:50.013Z,20.45
2018-09-03T20:19:17.281Z,20.38
2018-09-03T20:21:44.419Z,20.36
2018-09-03T20:24:12.029Z,20.39
2018-09-03T20:26:39.357Z,20.29
2018-09-03T20:29:06.576Z,20.26
2018-09-03T20:31:34.005Z,20.27
2018-09-03T20:34:01.160Z,20.32
2018-09-03T20:36:28.702Z,20.28
2018-09-03T20:38:56.769Z,20.24
2018-09-03T20:41:23.996Z,20.21
2018-09-03T20:43:51.183Z,20.22
2018-09-03T20:46:18.488Z,20.27
2018-09-03T20:48:46.288Z,20.39
2018-09-03T20:51:14.080Z,20.42
2018-09-03T20:53:41.313Z,20.36
2018-09-03T20:56:08.512Z,20.30
2018-09-03T20:58:35.793Z,20.32
2018-09-03T21:01:03.104Z,20.28
2018-09-03T21:03:30.450Z,20.24
2018-09-03T21:05:57.645Z,20.19
2018-09-03T21:08:24.841Z,20.15
2018-09-03T21:10:52.077Z,20.10
2018-09-03T21:13:20.835Z,20.03
2018-09-03T21:15:48.126Z,19.98
2018-09-03T21:18:15.232Z,19.98
2018-09-03T21:20:48.090Z,20.00
2018-09-03T21:23:15.713Z,20.00
2018-09-03T21:25:43.203Z,19.97
2018-09-03T21:28:10.603Z,19.96
2018-09-03T21:30:37.730Z,19.93
2018-09-03T21:33:04.918Z,19.90
2018-09-03T21:35:32.152Z,19.90
2018-09-03T21:37:59.401Z,19.88
2018-09-03T21:40:26.575Z,19.87
2018-09-03T21:42:53.738Z,19.89
2018-09-03T21:45:21.217Z,19.92
2018-09-03T21:47:48.437Z,19.92
2018-09-03T21:50:15.587Z,19.94
2018-09-03T21:52:42.747Z,19.91
2018-09-03T21:55:09.978Z,19.86
2018-09-03T21:57:37.206Z,19.85
2018-09-03T22:00:04.569Z,19.83
2018-09-03T22:02:31.767Z,19.80
2018-09-03T22:04:58.885Z,19.84
2018-09-03T22:07:26.075Z,19.91
2018-09-03T22:09:53.612Z,19.81
2018-09-03T22:12:20.778Z,19.78
2018-09-03T22:14:47.902Z,19.78
2018-09-03T22:17:15.150Z,19.78
2018-09-03T22:19:42.318Z,19.76
2018-09-03T22:22:09.729Z,19.76
2018-09-03T22:24:36.863Z,19.66
2018-09-03T22:27:04.037Z,19.59
2018-09-03T22:29:31.313Z,19.56
2018-09-03T22:31:58.487Z,19.61
2018-09-03T22:34:25.587Z,19.67
2018-09-03T22:36:52.789Z,19.68
2018-09-03T22:39:19.951Z,19.61
2018-09-03T22:41:47.107Z,19.59
2018-09-03T22:44:14.227Z,19.57
2018-09-03T22:46:41.402Z,19.58
2018-09-03T22:49:08.509Z,19.58
2018-09-03T22:51:35.711Z,19.66
2018-09-03T22:54:02.867Z,19.65
2018-09-03T22:56:29.995Z,19.57
2018-09-03T22:58:57.106Z,19.48
2018-09-03T23:01:24.174Z,19.44
2018-09-03T23:03:51.329Z,19.42
2018-09-03T23:06:18.441Z,19.43
2018-09-03T23:08:45.576Z,19.39
2018-09-03T23:11:12.793Z,19.36
2018-09-03T23:13:39.904Z,19.34
2018-09-03T23:16:07.043Z,19.33
2018-09-03T23:18:34.188Z,19.32
2018-09-03T23:21:01.302Z,19.40
2018-09-03T23:23:28.424Z,19.46
2018-09-03T23:25:55.548Z,19.43
2018-09-03T23:28:22.733Z,19.39
2018-09-03T23:30:49.952Z,19.39
2018-09-03T23:33:17.093Z,19.31
2018-09-03T23:35:44.199Z,19.25
2018-09-03T23:38:11.309Z,19.23
2018-09-03T23:40:38.421Z,19.20
2018-09-03T23:43:05.524Z,19.19
2018-09-03T23:45:32.753Z,19.16
2018-09-03T23:47:59.870Z,19.24
2018-09-03T23:50:27.001Z,19.20
2018-09-03T23:52:54.386Z,19.15
2018-09-03T23:55:21.518Z,19.08
2018-09-03T23:57:48.674Z,19.02
